Antwerp, Ohio
Current Conditions -  °F | °C
As of 4:55 PM on Friday 31 Oct 2014 (Local Time) from KGWB Reporting Station
Light Rain Light Rain  
Wind Chill: 27°   Ceiling: 1100
Heat Index: 37°   Visibility: 10mi
Dew Point: 34°   Wind: 20mph
Humidity: 87%   Direction: 10°N
Pressure: 29.98"   Gusts: 29mph
Location:  41.18°N, 84.74°W
Report Text: KGWB 312055Z AUTO 01017G25KT 10SM -RA BKN011 OVC020 03/01 A2998 RMK AO2 P0001
Loading
Personal Weather Stations






























Interactive Weather Map New forecast layout! Learn more

10-Day Weather Forecast

Advertisements
Track Severe Weather on mobile